createdAt,value
2019-03-28T00:00:23.609Z,14.40
2019-03-28T00:01:23.610Z,14.80
2019-03-28T00:02:23.835Z,13.50
2019-03-28T00:03:23.611Z,13.70
2019-03-28T00:04:23.609Z,15.10
2019-03-28T00:05:23.587Z,13.60
2019-03-28T00:06:23.565Z,14.20
2019-03-28T00:07:24.308Z,13.70
2019-03-28T00:08:23.571Z,14.00
2019-03-28T00:09:23.555Z,13.90
2019-03-28T00:10:23.565Z,14.30
2019-03-28T00:11:24.179Z,14.40
2019-03-28T00:12:23.536Z,14.60
2019-03-28T00:13:23.558Z,15.50
2019-03-28T00:14:23.541Z,14.50
2019-03-28T00:15:23.535Z,14.80
2019-03-28T00:16:23.515Z,13.40
2019-03-28T00:17:23.509Z,14.30
2019-03-28T00:18:23.497Z,14.30
2019-03-28T00:19:23.496Z,14.10
2019-03-28T00:20:23.494Z,14.60
2019-03-28T00:21:23.489Z,15.20
2019-03-28T00:22:23.534Z,14.50
2019-03-28T00:23:23.481Z,15.00
2019-03-28T00:24:23.479Z,15.70
2019-03-28T00:25:23.514Z,16.00
2019-03-28T00:26:30.190Z,16.20
2019-03-28T00:27:23.460Z,15.70
2019-03-28T00:28:23.454Z,17.90
2019-03-28T00:29:23.442Z,17.90
2019-03-28T00:30:23.449Z,19.30
2019-03-28T00:31:23.437Z,18.80
2019-03-28T00:32:23.651Z,17.70
2019-03-28T00:33:23.415Z,17.50
2019-03-28T00:34:23.417Z,17.10
2019-03-28T00:35:23.621Z,19.20
2019-03-28T00:36:23.410Z,17.40
2019-03-28T00:37:23.412Z,18.30
2019-03-28T00:38:23.386Z,17.10
2019-03-28T00:39:23.386Z,17.40
2019-03-28T00:40:23.385Z,17.10
2019-03-28T00:41:23.380Z,16.90
2019-03-28T00:42:23.379Z,15.60
2019-03-28T00:43:23.583Z,17.10
2019-03-28T00:44:23.356Z,16.10
2019-03-28T00:45:23.345Z,15.30
2019-03-28T00:46:23.553Z,14.50
2019-03-28T00:47:23.551Z,14.70
2019-03-28T00:48:23.551Z,15.10
2019-03-28T00:49:23.339Z,16.50
2019-03-28T00:50:23.321Z,16.00
2019-03-28T00:51:23.320Z,15.90
2019-03-28T00:52:23.323Z,17.10
2019-03-28T00:53:23.307Z,15.30
2019-03-28T00:54:23.303Z,16.20
2019-03-28T00:55:23.299Z,19.80
2019-03-28T00:56:23.312Z,18.70
2019-03-28T00:57:23.282Z,17.80
2019-03-28T00:58:23.276Z,18.30
2019-03-28T00:59:23.280Z,18.60
2019-03-28T01:00:23.479Z,18.50
2019-03-28T01:01:23.265Z,17.80
2019-03-28T01:02:23.254Z,18.40
2019-03-28T01:03:23.248Z,18.70
2019-03-28T01:04:23.248Z,18.40
2019-03-28T01:05:23.294Z,17.80
2019-03-28T01:06:23.238Z,16.00
2019-03-28T01:07:23.226Z,16.10
2019-03-28T01:08:23.223Z,15.70
2019-03-28T01:09:23.215Z,16.90
2019-03-28T01:10:23.215Z,17.20
2019-03-28T01:11:23.220Z,18.60
2019-03-28T01:12:23.198Z,17.70
2019-03-28T01:13:23.186Z,16.40
2019-03-28T01:14:23.181Z,16.10
2019-03-28T01:15:23.352Z,16.70
2019-03-28T01:16:23.171Z,15.90
2019-03-28T01:17:23.182Z,16.20
2019-03-28T01:18:23.160Z,16.20
2019-03-28T01:19:23.363Z,16.70
2019-03-28T01:20:23.179Z,18.30
2019-03-28T01:21:23.173Z,17.60
2019-03-28T01:22:23.346Z,17.50
2019-03-28T01:23:23.136Z,18.40
2019-03-28T01:24:23.349Z,18.80
2019-03-28T01:25:23.124Z,18.30
2019-03-28T01:26:23.116Z,17.50
2019-03-28T01:27:23.124Z,18.60
2019-03-28T01:28:23.108Z,18.00
2019-03-28T01:29:23.098Z,17.70
2019-03-28T01:30:23.098Z,18.50
2019-03-28T01:31:23.300Z,17.90
2019-03-28T01:32:23.082Z,19.20
2019-03-28T01:33:23.093Z,18.40
2019-03-28T01:34:23.070Z,19.40
2019-03-28T01:35:23.274Z,18.40
2019-03-28T01:36:23.078Z,18.40
2019-03-28T01:37:23.143Z,19.40
2019-03-28T01:38:23.045Z,19.40
2019-03-28T01:39:23.046Z,19.80
2019-03-28T01:40:23.049Z,19.50
2019-03-28T01:41:23.062Z,20.10
2019-03-28T01:42:23.021Z,20.30
2019-03-28T01:43:23.029Z,19.50
2019-03-28T01:44:23.013Z,21.10
2019-03-28T01:45:23.002Z,19.40
2019-03-28T01:46:22.995Z,19.90
2019-03-28T01:47:23.009Z,21.30
2019-03-28T01:48:23.188Z,19.10
2019-03-28T01:49:22.994Z,19.40
2019-03-28T01:50:22.987Z,19.90
2019-03-28T01:51:22.968Z,19.90
2019-03-28T01:52:22.969Z,20.60
2019-03-28T01:53:22.961Z,20.20
2019-03-28T01:54:22.964Z,20.00
2019-03-28T01:55:22.962Z,19.10
2019-03-28T01:56:25.056Z,19.80
2019-03-28T01:57:22.958Z,21.50
2019-03-28T01:58:22.938Z,20.90
2019-03-28T01:59:22.933Z,21.10
2019-03-28T02:00:23.147Z,21.20
2019-03-28T02:01:22.926Z,21.10
2019-03-28T02:02:23.128Z,20.80
2019-03-28T02:03:23.111Z,23.30
2019-03-28T02:04:23.102Z,23.90
2019-03-28T02:05:22.904Z,23.70
2019-03-28T02:06:22.889Z,22.60
2019-03-28T02:07:22.897Z,23.70
2019-03-28T02:08:24.888Z,23.20
2019-03-28T02:09:22.870Z,23.30
2019-03-28T02:10:22.865Z,23.00
2019-03-28T02:11:22.872Z,22.80
2019-03-28T02:12:22.857Z,23.20
2019-03-28T02:13:22.844Z,22.50
2019-03-28T02:14:22.838Z,21.50
2019-03-28T02:15:22.840Z,21.40
2019-03-28T02:16:22.832Z,21.40
2019-03-28T02:17:22.835Z,23.00
2019-03-28T02:18:22.834Z,23.90
2019-03-28T02:19:22.833Z,22.90
2019-03-28T02:20:22.812Z,24.70
2019-03-28T02:21:22.997Z,24.00
2019-03-28T02:22:22.799Z,24.20
2019-03-28T02:23:22.800Z,23.40
2019-03-28T02:24:22.782Z,24.40
2019-03-28T02:25:22.773Z,26.20
2019-03-28T02:26:22.974Z,23.10
2019-03-28T02:27:24.207Z,23.90
2019-03-28T02:28:22.962Z,23.40
2019-03-28T02:29:22.747Z,24.50
2019-03-28T02:30:22.745Z,25.00
2019-03-28T02:31:22.947Z,25.20
2019-03-28T02:32:22.733Z,26.20
2019-03-28T02:33:22.742Z,26.10
2019-03-28T02:34:22.729Z,23.70
2019-03-28T02:35:22.712Z,24.10
2019-03-28T02:36:22.712Z,23.60
2019-03-28T02:37:22.718Z,24.60
2019-03-28T02:38:22.908Z,26.40
2019-03-28T02:39:22.709Z,23.00
2019-03-28T02:40:22.700Z,21.50
2019-03-28T02:41:22.683Z,21.90
2019-03-28T02:42:22.678Z,21.10
2019-03-28T02:43:22.900Z,21.70
2019-03-28T02:44:22.675Z,21.20
2019-03-28T02:45:22.861Z,19.20
2019-03-28T02:46:22.932Z,20.30
2019-03-28T02:47:22.650Z,21.20
2019-03-28T02:48:22.642Z,20.40
2019-03-28T02:49:22.660Z,20.20
2019-03-28T02:50:22.637Z,21.90
2019-03-28T02:51:22.631Z,22.00
2019-03-28T02:52:22.640Z,22.60
2019-03-28T02:53:22.629Z,21.00
2019-03-28T02:54:22.829Z,22.20
2019-03-28T02:55:23.713Z,20.30
2019-03-28T02:56:22.811Z,19.20
2019-03-28T02:57:22.603Z,19.10
2019-03-28T02:58:22.581Z,19.80
2019-03-28T02:59:22.597Z,20.10
2019-03-28T03:00:22.601Z,20.60
2019-03-28T03:01:22.569Z,22.80
2019-03-28T03:02:22.582Z,20.90
2019-03-28T03:03:22.552Z,20.40
2019-03-28T03:04:22.606Z,20.90
2019-03-28T03:05:22.549Z,20.40
2019-03-28T03:06:22.551Z,20.60
2019-03-28T03:07:22.549Z,21.90
2019-03-28T03:08:22.523Z,21.50
2019-03-28T03:09:22.523Z,22.60
2019-03-28T03:10:22.524Z,23.30
2019-03-28T03:11:22.526Z,22.20
2019-03-28T03:12:22.503Z,22.30
2019-03-28T03:13:22.706Z,22.20
2019-03-28T03:14:22.501Z,24.00
2019-03-28T03:15:22.693Z,21.90
2019-03-28T03:16:22.843Z,22.60
2019-03-28T03:17:22.504Z,25.00
2019-03-28T03:18:22.489Z,22.80
2019-03-28T03:19:22.478Z,23.40
2019-03-28T03:20:22.688Z,22.90
2019-03-28T03:21:22.454Z,23.20
2019-03-28T03:22:22.446Z,23.00
2019-03-28T03:23:22.449Z,21.20
2019-03-28T03:24:22.459Z,20.80
2019-03-28T03:25:22.637Z,21.60
2019-03-28T03:26:22.423Z,20.80
2019-03-28T03:27:22.431Z,21.50
2019-03-28T03:28:22.434Z,21.70
2019-03-28T03:29:22.431Z,27.30
2019-03-28T03:30:22.459Z,25.90
2019-03-28T03:31:23.878Z,26.10
2019-03-28T03:32:22.396Z,26.10
2019-03-28T03:33:22.434Z,24.10
2019-03-28T03:34:22.413Z,23.10
2019-03-28T03:35:22.382Z,22.80
2019-03-28T03:36:22.374Z,22.10
2019-03-28T03:37:22.365Z,20.70
2019-03-28T03:38:22.358Z,21.10
2019-03-28T03:39:22.347Z,23.40
2019-03-28T03:40:22.368Z,24.00
2019-03-28T03:41:22.359Z,24.10
2019-03-28T03:42:22.351Z,25.80
2019-03-28T03:43:23.146Z,24.20
2019-03-28T03:44:22.326Z,24.60
2019-03-28T03:45:22.317Z,25.40
2019-03-28T03:46:22.323Z,25.50
2019-03-28T03:47:22.340Z,23.90
2019-03-28T03:48:22.312Z,24.90
2019-03-28T03:49:22.294Z,26.60
2019-03-28T03:50:22.478Z,25.60
2019-03-28T03:51:22.294Z,26.70
2019-03-28T03:52:22.315Z,26.50
2019-03-28T03:53:22.284Z,25.40
2019-03-28T03:54:22.264Z,25.60
2019-03-28T03:55:22.277Z,29.10
2019-03-28T03:56:22.259Z,25.80
2019-03-28T03:57:22.254Z,26.00
2019-03-28T03:58:22.263Z,25.00
2019-03-28T03:59:22.257Z,24.40
2019-03-28T04:00:22.236Z,24.90
2019-03-28T04:01:22.234Z,26.10
2019-03-28T04:02:22.226Z,25.50
2019-03-28T04:03:22.228Z,25.60
2019-03-28T04:04:22.282Z,26.00
2019-03-28T04:05:22.221Z,32.60
2019-03-28T04:06:22.230Z,27.70
2019-03-28T04:07:22.213Z,26.50
2019-03-28T04:08:22.199Z,26.60
2019-03-28T04:09:22.196Z,26.70
2019-03-28T04:10:22.202Z,27.60
2019-03-28T04:11:22.392Z,26.50
2019-03-28T04:12:22.178Z,27.10
2019-03-28T04:13:22.171Z,26.10
2019-03-28T04:14:22.154Z,27.20
2019-03-28T04:15:22.361Z,25.80
2019-03-28T04:16:22.363Z,26.50
2019-03-28T04:17:22.146Z,27.00
2019-03-28T04:18:22.508Z,28.40
2019-03-28T04:19:22.137Z,26.50
2019-03-28T04:20:22.141Z,26.80
2019-03-28T04:21:22.147Z,28.00
2019-03-28T04:22:22.127Z,27.10
2019-03-28T04:23:22.121Z,27.00
2019-03-28T04:24:22.174Z,27.10
2019-03-28T04:25:22.113Z,29.00
2019-03-28T04:26:22.100Z,27.80
2019-03-28T04:27:22.100Z,27.90
2019-03-28T04:28:31.767Z,28.10
2019-03-28T04:29:22.077Z,27.10
2019-03-28T04:30:22.748Z,27.80
2019-03-28T04:31:22.074Z,26.90
2019-03-28T04:32:22.095Z,28.20
2019-03-28T04:33:22.053Z,27.00
2019-03-28T04:34:22.044Z,28.50
2019-03-28T04:35:22.041Z,28.70
2019-03-28T04:36:22.052Z,27.70
2019-03-28T04:37:22.029Z,26.20
2019-03-28T04:38:22.232Z,25.10
2019-03-28T04:39:22.222Z,28.00
2019-03-28T04:40:22.029Z,27.10
2019-03-28T04:41:22.009Z,25.90
2019-03-28T04:42:22.206Z,25.40
2019-03-28T04:43:21.998Z,25.40
2019-03-28T04:44:22.001Z,26.00
2019-03-28T04:45:21.988Z,25.80
2019-03-28T04:46:22.021Z,25.50
2019-03-28T04:47:21.977Z,29.40
2019-03-28T04:48:21.976Z,26.60
2019-03-28T04:49:21.990Z,28.10
2019-03-28T04:50:22.169Z,27.90
2019-03-28T04:51:21.967Z,28.30
2019-03-28T04:52:22.167Z,28.30
2019-03-28T04:53:22.144Z,26.90
2019-03-28T04:54:21.962Z,27.00
2019-03-28T04:55:22.134Z,26.50
2019-03-28T04:56:21.944Z,26.80
2019-03-28T04:57:21.918Z,27.30
2019-03-28T04:58:22.737Z,26.30
2019-03-28T04:59:21.908Z,28.10
2019-03-28T05:00:21.901Z,26.90
2019-03-28T05:01:21.911Z,26.70
2019-03-28T05:02:21.986Z,25.60
2019-03-28T05:03:21.897Z,28.40
2019-03-28T05:04:21.936Z,26.80
2019-03-28T05:05:21.882Z,27.40
2019-03-28T05:06:21.880Z,27.80
2019-03-28T05:07:21.862Z,28.60
2019-03-28T05:08:21.858Z,28.20
2019-03-28T05:09:21.856Z,27.30
2019-03-28T05:10:21.851Z,27.30
2019-03-28T05:11:21.848Z,27.50
2019-03-28T05:12:22.046Z,26.60
2019-03-28T05:13:21.833Z,28.00
2019-03-28T05:14:21.832Z,27.70
2019-03-28T05:15:21.817Z,28.60
2019-03-28T05:16:21.843Z,29.20
2019-03-28T05:17:21.816Z,28.10
2019-03-28T05:18:21.801Z,27.00
2019-03-28T05:19:21.811Z,30.70
2019-03-28T05:20:22.008Z,27.20
2019-03-28T05:21:21.801Z,26.10
2019-03-28T05:22:22.424Z,27.50
2019-03-28T05:23:22.224Z,27.50
2019-03-28T05:24:21.783Z,27.20
2019-03-28T05:25:21.768Z,26.10
2019-03-28T05:26:21.969Z,28.20
2019-03-28T05:27:21.755Z,26.90
2019-03-28T05:28:21.772Z,27.80
2019-03-28T05:29:21.976Z,27.40
2019-03-28T05:30:21.940Z,27.50
2019-03-28T05:31:21.737Z,27.30
2019-03-28T05:32:21.950Z,27.50
2019-03-28T05:33:21.925Z,28.20
2019-03-28T05:34:21.713Z,27.90
2019-03-28T05:35:21.716Z,27.20
2019-03-28T05:36:21.706Z,27.00
2019-03-28T05:37:21.908Z,29.00
2019-03-28T05:38:21.714Z,29.50
2019-03-28T05:39:21.688Z,29.10
2019-03-28T05:40:22.899Z,30.60
2019-03-28T05:41:21.696Z,29.10
2019-03-28T05:42:21.892Z,28.10
2019-03-28T05:43:21.694Z,27.80
2019-03-28T05:44:21.872Z,28.60
2019-03-28T05:45:21.670Z,29.50
2019-03-28T05:46:21.652Z,29.90
2019-03-28T05:47:22.264Z,28.20
2019-03-28T05:48:21.640Z,29.80
2019-03-28T05:49:21.655Z,30.90
2019-03-28T05:50:21.647Z,29.00
2019-03-28T05:51:21.622Z,29.60
2019-03-28T05:52:21.634Z,30.40
2019-03-28T05:53:21.625Z,31.40
2019-03-28T05:54:21.635Z,29.90
2019-03-28T05:55:21.650Z,30.60
2019-03-28T05:56:21.609Z,31.10
2019-03-28T05:57:21.606Z,31.20
2019-03-28T05:58:21.588Z,30.60
2019-03-28T05:59:21.589Z,30.20
2019-03-28T06:00:21.578Z,30.00
2019-03-28T06:01:21.598Z,30.10
2019-03-28T06:02:21.629Z,30.00
2019-03-28T06:03:21.554Z,30.90
2019-03-28T06:04:21.553Z,29.90
2019-03-28T06:05:21.751Z,30.00
2019-03-28T06:06:21.545Z,32.50
2019-03-28T06:07:21.540Z,32.50
2019-03-28T06:08:21.538Z,35.00
2019-03-28T06:09:21.523Z,33.00
2019-03-28T06:10:21.534Z,31.60
2019-03-28T06:11:21.598Z,31.50
2019-03-28T06:12:21.509Z,32.80
2019-03-28T06:13:21.501Z,31.30
2019-03-28T06:14:21.501Z,34.20
2019-03-28T06:15:21.503Z,35.60
2019-03-28T06:16:21.490Z,34.00
2019-03-28T06:17:21.685Z,35.70
2019-03-28T06:18:21.478Z,35.60
2019-03-28T06:19:21.560Z,34.10
2019-03-28T06:20:21.466Z,34.90
2019-03-28T06:21:21.593Z,34.90
2019-03-28T06:22:21.655Z,33.80
2019-03-28T06:23:21.446Z,35.50
2019-03-28T06:24:21.716Z,35.50
2019-03-28T06:25:22.808Z,35.00
2019-03-28T06:26:21.428Z,36.90
2019-03-28T06:27:21.429Z,36.00
2019-03-28T06:28:21.418Z,36.70
2019-03-28T06:29:24.029Z,35.90
2019-03-28T06:30:21.404Z,34.20
2019-03-28T06:31:21.433Z,36.20
2019-03-28T06:32:21.395Z,39.20
2019-03-28T06:33:21.387Z,37.20
2019-03-28T06:34:21.384Z,36.50
2019-03-28T06:35:21.996Z,37.90
2019-03-28T06:36:21.376Z,40.30
2019-03-28T06:37:21.381Z,45.50
2019-03-28T06:38:21.376Z,42.30
2019-03-28T06:39:21.355Z,39.40
2019-03-28T06:40:21.385Z,41.30
2019-03-28T06:41:21.579Z,42.50
2019-03-28T06:42:21.354Z,39.70
2019-03-28T06:43:21.336Z,39.00
2019-03-28T06:44:21.341Z,41.40
2019-03-28T06:45:21.326Z,42.00
2019-03-28T06:46:21.335Z,40.60
2019-03-28T06:47:22.542Z,38.50
2019-03-28T06:48:21.546Z,46.90
2019-03-28T06:49:21.591Z,37.10
2019-03-28T06:50:21.304Z,40.20
2019-03-28T06:51:21.502Z,36.80
2019-03-28T06:52:21.329Z,41.40
2019-03-28T06:53:21.280Z,35.20
2019-03-28T06:54:24.196Z,36.40
2019-03-28T06:55:23.904Z,40.80
2019-03-28T06:56:21.481Z,40.50
2019-03-28T06:57:21.349Z,37.70
2019-03-28T06:58:21.288Z,37.50
2019-03-28T06:59:21.277Z,39.80
2019-03-28T07:00:21.463Z,37.30
2019-03-28T07:01:21.238Z,37.30
2019-03-28T07:02:22.049Z,40.00
2019-03-28T07:03:21.433Z,37.80
2019-03-28T07:04:21.230Z,39.00
2019-03-28T07:05:21.220Z,38.60
2019-03-28T07:06:21.219Z,41.50
2019-03-28T07:07:21.209Z,40.70
2019-03-28T07:08:21.204Z,39.30
2019-03-28T07:09:21.399Z,39.60
2019-03-28T07:10:21.197Z,41.20
2019-03-28T07:11:21.189Z,36.90
2019-03-28T07:12:21.183Z,41.30
2019-03-28T07:13:21.200Z,40.70
2019-03-28T07:14:21.183Z,40.30
2019-03-28T07:15:21.162Z,38.00
2019-03-28T07:16:21.368Z,38.50
2019-03-28T07:17:21.152Z,40.90
2019-03-28T07:18:21.152Z,40.40
2019-03-28T07:19:21.150Z,38.80
2019-03-28T07:20:21.138Z,39.90
2019-03-28T07:21:21.128Z,38.30
2019-03-28T07:22:21.128Z,39.10
2019-03-28T07:23:21.128Z,39.50
2019-03-28T07:24:21.128Z,45.50
2019-03-28T07:25:21.115Z,41.00
2019-03-28T07:26:21.113Z,39.20
2019-03-28T07:27:21.099Z,40.40
2019-03-28T07:28:21.097Z,37.20
2019-03-28T07:29:21.096Z,38.90
2019-03-28T07:30:21.111Z,41.50
2019-03-28T07:31:21.297Z,40.20
2019-03-28T07:32:21.091Z,43.10
2019-03-28T07:33:21.089Z,40.40
2019-03-28T07:34:21.068Z,43.00
2019-03-28T07:35:21.074Z,38.90
2019-03-28T07:36:21.063Z,41.90
2019-03-28T07:37:21.056Z,43.00
2019-03-28T07:38:21.264Z,42.50
2019-03-28T07:39:21.039Z,39.80
2019-03-28T07:40:21.044Z,44.10
2019-03-28T07:41:21.245Z,41.70
2019-03-28T07:42:21.245Z,41.00
2019-03-28T07:43:21.034Z,40.90
2019-03-28T07:44:21.016Z,40.20
2019-03-28T07:45:21.011Z,40.00
2019-03-28T07:46:21.000Z,40.10
2019-03-28T07:47:20.993Z,41.60
2019-03-28T07:48:21.003Z,42.50
2019-03-28T07:49:21.194Z,43.00
2019-03-28T07:50:20.998Z,44.10
2019-03-28T07:51:20.990Z,44.40
2019-03-28T07:52:20.971Z,43.60
2019-03-28T07:53:21.594Z,42.30
2019-03-28T07:54:20.978Z,39.60
2019-03-28T07:55:20.960Z,41.70
2019-03-28T07:56:20.985Z,44.90
2019-03-28T07:57:20.959Z,42.30
2019-03-28T07:58:20.943Z,45.80
2019-03-28T07:59:20.930Z,40.40
2019-03-28T08:00:20.949Z,43.60
2019-03-28T08:01:21.125Z,41.70
2019-03-28T08:02:20.920Z,43.30
2019-03-28T08:03:20.915Z,43.20
2019-03-28T08:04:20.928Z,41.70
2019-03-28T08:05:21.118Z,43.80
2019-03-28T08:06:20.901Z,44.70
2019-03-28T08:07:21.113Z,42.80
2019-03-28T08:08:21.123Z,45.50
2019-03-28T08:09:20.900Z,44.00
2019-03-28T08:10:20.890Z,44.50
2019-03-28T08:11:20.975Z,43.00
2019-03-28T08:12:23.068Z,42.30
2019-03-28T08:13:20.865Z,42.50
2019-03-28T08:14:20.856Z,43.00
2019-03-28T08:15:20.855Z,43.50
2019-03-28T08:16:21.079Z,44.20
2019-03-28T08:17:20.873Z,42.60
2019-03-28T08:18:23.678Z,41.10
2019-03-28T08:19:21.037Z,45.00
2019-03-28T08:20:21.029Z,41.00
2019-03-28T08:21:20.821Z,43.70
2019-03-28T08:22:20.832Z,44.70
2019-03-28T08:23:20.809Z,40.70
2019-03-28T08:24:20.807Z,43.00
2019-03-28T08:25:20.807Z,39.80
2019-03-28T08:26:20.803Z,40.10
2019-03-28T08:27:20.991Z,41.50
2019-03-28T08:28:20.988Z,40.00
2019-03-28T08:29:20.790Z,40.50
2019-03-28T08:30:20.778Z,43.70
2019-03-28T08:31:20.792Z,41.40
2019-03-28T08:32:20.783Z,39.40
2019-03-28T08:33:20.762Z,42.40
2019-03-28T08:34:20.759Z,40.80
2019-03-28T08:35:20.752Z,41.40
2019-03-28T08:36:20.962Z,43.50
2019-03-28T08:37:20.955Z,42.40
2019-03-28T08:38:20.954Z,42.80
2019-03-28T08:39:20.725Z,41.20
2019-03-28T08:40:20.936Z,40.00
2019-03-28T08:41:20.715Z,40.00
2019-03-28T08:42:20.711Z,40.20
2019-03-28T08:43:20.706Z,38.60
2019-03-28T08:44:22.655Z,41.20
2019-03-28T08:45:20.700Z,38.70
2019-03-28T08:46:20.721Z,40.40
2019-03-28T08:47:20.687Z,40.90
2019-03-28T08:48:20.696Z,42.70
2019-03-28T08:49:20.692Z,41.60
2019-03-28T08:50:20.689Z,41.70
2019-03-28T08:51:20.664Z,45.80
2019-03-28T08:52:20.667Z,40.30
2019-03-28T08:53:20.655Z,40.70
2019-03-28T08:54:20.671Z,42.00
2019-03-28T08:55:20.652Z,40.00
2019-03-28T08:56:20.644Z,46.00
2019-03-28T08:57:20.833Z,41.90
2019-03-28T08:58:20.838Z,39.10
2019-03-28T08:59:20.637Z,41.70
2019-03-28T09:00:32.308Z,44.60
2019-03-28T09:01:20.634Z,41.70
2019-03-28T09:02:20.609Z,44.80
2019-03-28T09:03:20.603Z,43.30
2019-03-28T09:04:20.610Z,44.80
2019-03-28T09:05:20.605Z,47.70
2019-03-28T09:06:20.810Z,42.90
2019-03-28T09:07:20.583Z,44.20
2019-03-28T09:08:20.581Z,42.10
2019-03-28T09:09:21.354Z,42.60
2019-03-28T09:10:20.584Z,40.20
2019-03-28T09:11:21.552Z,41.50
2019-03-28T09:12:20.560Z,41.80
2019-03-28T09:13:20.558Z,42.30
2019-03-28T09:14:20.584Z,43.50
2019-03-28T09:15:20.749Z,43.60
2019-03-28T09:16:20.757Z,41.70
2019-03-28T09:17:23.627Z,42.10
2019-03-28T09:18:20.536Z,44.10
2019-03-28T09:19:20.522Z,42.70
2019-03-28T09:20:20.538Z,41.80
2019-03-28T09:21:20.510Z,40.40
2019-03-28T09:22:20.528Z,42.70
2019-03-28T09:23:20.513Z,43.70
2019-03-28T09:24:20.529Z,41.00
2019-03-28T09:25:20.722Z,43.60
2019-03-28T09:26:20.502Z,42.90
2019-03-28T09:27:20.496Z,44.00
2019-03-28T09:28:20.488Z,40.50
2019-03-28T09:29:20.478Z,43.30
2019-03-28T09:30:20.480Z,42.30
2019-03-28T09:31:20.614Z,39.90
2019-03-28T09:32:20.458Z,43.60
2019-03-28T09:33:20.455Z,43.20
2019-03-28T09:34:20.657Z,39.00
2019-03-28T09:35:20.445Z,39.30
2019-03-28T09:36:20.461Z,43.30
2019-03-28T09:37:20.449Z,41.20
2019-03-28T09:38:20.476Z,39.50
2019-03-28T09:39:20.630Z,42.00
2019-03-28T09:40:20.436Z,38.70
2019-03-28T09:41:20.416Z,39.30
2019-03-28T09:42:20.415Z,39.70
2019-03-28T09:43:20.611Z,38.10
2019-03-28T09:44:20.602Z,39.30
2019-03-28T09:45:20.604Z,37.00
2019-03-28T09:46:20.430Z,35.00
2019-03-28T09:47:20.391Z,35.70
2019-03-28T09:48:20.382Z,36.20
2019-03-28T09:49:20.379Z,36.60
2019-03-28T09:50:20.373Z,37.30
2019-03-28T09:51:20.366Z,39.70
2019-03-28T09:52:20.605Z,39.00
2019-03-28T09:53:20.366Z,36.80
2019-03-28T09:54:20.356Z,38.50
2019-03-28T09:55:20.361Z,35.40
2019-03-28T09:56:20.354Z,36.10
2019-03-28T09:57:20.570Z,36.70
2019-03-28T09:58:20.353Z,36.20
2019-03-28T09:59:20.340Z,35.60
2019-03-28T10:00:20.333Z,37.30
2019-03-28T10:01:20.326Z,35.20
2019-03-28T10:02:20.315Z,33.20
2019-03-28T10:03:20.341Z,35.80
2019-03-28T10:04:20.312Z,36.70
2019-03-28T10:05:20.305Z,33.10
2019-03-28T10:06:20.296Z,31.90
2019-03-28T10:07:20.298Z,33.90
2019-03-28T10:08:20.293Z,36.60
2019-03-28T10:09:20.303Z,32.80
2019-03-28T10:10:20.278Z,35.80
2019-03-28T10:11:20.277Z,31.40
2019-03-28T10:12:20.273Z,35.30
2019-03-28T10:13:20.266Z,32.70
2019-03-28T10:14:20.266Z,36.20
2019-03-28T10:15:20.259Z,34.30
2019-03-28T10:16:20.271Z,32.80
2019-03-28T10:17:20.274Z,35.20
2019-03-28T10:18:20.548Z,32.60
2019-03-28T10:19:20.239Z,34.00
2019-03-28T10:20:20.238Z,33.00
2019-03-28T10:21:20.250Z,33.10
2019-03-28T10:22:22.394Z,35.90
2019-03-28T10:23:20.224Z,35.20
2019-03-28T10:24:20.222Z,33.90
2019-03-28T10:25:20.424Z,34.10
2019-03-28T10:26:20.211Z,32.60
2019-03-28T10:27:20.415Z,32.50
2019-03-28T10:28:20.401Z,35.10
2019-03-28T10:29:20.413Z,32.00
2019-03-28T10:30:20.193Z,32.30
2019-03-28T10:31:20.186Z,31.70
2019-03-28T10:32:20.185Z,31.30
2019-03-28T10:33:20.185Z,29.60
2019-03-28T10:34:20.389Z,31.10
2019-03-28T10:35:20.173Z,30.70
2019-03-28T10:36:20.167Z,35.00
2019-03-28T10:37:20.176Z,31.50
2019-03-28T10:38:20.173Z,29.90
2019-03-28T10:39:20.176Z,32.60
2019-03-28T10:40:20.154Z,33.90
2019-03-28T10:41:20.358Z,31.20
2019-03-28T10:42:20.672Z,34.90
2019-03-28T10:43:20.335Z,34.90
2019-03-28T10:44:20.132Z,34.90
2019-03-28T10:45:20.119Z,36.10
2019-03-28T10:46:20.326Z,35.20
2019-03-28T10:47:20.338Z,34.20
2019-03-28T10:48:23.354Z,34.90
2019-03-28T10:49:20.119Z,35.70
2019-03-28T10:50:20.316Z,35.60
2019-03-28T10:51:20.112Z,34.00
2019-03-28T10:52:20.096Z,34.00
2019-03-28T10:53:20.093Z,33.10
2019-03-28T10:54:21.001Z,33.70
2019-03-28T10:55:20.295Z,33.60
2019-03-28T10:56:22.434Z,32.80
2019-03-28T10:57:29.837Z,34.30
2019-03-28T10:58:20.290Z,36.20
2019-03-28T10:59:23.790Z,32.00
2019-03-28T11:00:24.393Z,32.30
2019-03-28T11:01:36.028Z,32.70
2019-03-28T11:02:20.065Z,33.70
2019-03-28T11:03:20.263Z,31.20
2019-03-28T11:04:20.040Z,31.80
2019-03-28T11:05:20.042Z,30.70
2019-03-28T11:06:20.040Z,32.60
2019-03-28T11:07:20.245Z,33.80
2019-03-28T11:08:20.025Z,30.40
2019-03-28T11:09:20.245Z,33.30
2019-03-28T11:10:20.038Z,31.20
2019-03-28T11:11:20.016Z,31.50
2019-03-28T11:12:20.015Z,30.90
2019-03-28T11:13:20.005Z,31.60
2019-03-28T11:14:20.006Z,29.00
2019-03-28T11:15:19.999Z,29.20
2019-03-28T11:16:20.024Z,28.70
2019-03-28T11:17:19.996Z,30.40
2019-03-28T11:18:19.987Z,33.60
2019-03-28T11:19:20.210Z,30.40
2019-03-28T11:20:20.009Z,30.30
2019-03-28T11:21:19.973Z,29.40
2019-03-28T11:22:20.177Z,32.40
2019-03-28T11:23:19.969Z,29.80
2019-03-28T11:24:19.967Z,31.40
2019-03-28T11:25:19.974Z,29.50
2019-03-28T11:26:20.186Z,29.10
2019-03-28T11:27:19.951Z,32.70
2019-03-28T11:28:23.219Z,31.70
2019-03-28T11:29:20.179Z,32.80
2019-03-28T11:30:20.142Z,33.60
2019-03-28T11:31:20.147Z,34.40
2019-03-28T11:32:19.932Z,30.60
2019-03-28T11:33:20.135Z,31.10
2019-03-28T11:34:20.155Z,31.60
2019-03-28T11:35:19.944Z,29.90
2019-03-28T11:36:19.921Z,32.80
2019-03-28T11:37:26.331Z,35.00
2019-03-28T11:38:20.116Z,32.00
2019-03-28T11:39:20.857Z,34.20
2019-03-28T11:40:19.915Z,33.20
2019-03-28T11:41:19.895Z,33.70
2019-03-28T11:42:19.891Z,32.90
2019-03-28T11:43:19.960Z,34.10
2019-03-28T11:44:19.891Z,31.90
2019-03-28T11:45:19.903Z,31.30
2019-03-28T11:46:19.885Z,31.00
2019-03-28T11:47:22.171Z,31.80
2019-03-28T11:48:19.889Z,34.70
2019-03-28T11:49:19.875Z,36.10
2019-03-28T11:50:19.864Z,31.70
2019-03-28T11:51:19.866Z,32.00
2019-03-28T11:52:19.878Z,32.10
2019-03-28T11:53:19.876Z,31.60
2019-03-28T11:54:19.872Z,32.50
2019-03-28T11:55:19.852Z,32.10
2019-03-28T11:56:19.843Z,34.60
2019-03-28T11:57:19.850Z,33.20
2019-03-28T11:58:19.843Z,31.80
2019-03-28T11:59:19.838Z,31.20
2019-03-28T12:00:19.842Z,30.80
2019-03-28T12:01:20.029Z,31.40
2019-03-28T12:02:20.636Z,32.50
2019-03-28T12:03:19.825Z,30.20
2019-03-28T12:04:20.027Z,32.40
2019-03-28T12:05:20.031Z,31.70
2019-03-28T12:06:19.817Z,33.00
2019-03-28T12:07:20.015Z,30.90
2019-03-28T12:08:19.812Z,31.30
2019-03-28T12:09:19.797Z,31.90
2019-03-28T12:10:19.796Z,31.00
2019-03-28T12:11:19.822Z,30.80
2019-03-28T12:12:19.796Z,31.40
2019-03-28T12:13:19.799Z,31.40
2019-03-28T12:14:19.781Z,33.30
2019-03-28T12:15:19.773Z,30.40
2019-03-28T12:16:19.805Z,31.30
2019-03-28T12:17:19.788Z,33.00
2019-03-28T12:18:19.784Z,32.90
2019-03-28T12:19:19.783Z,30.90
2019-03-28T12:20:19.764Z,34.00
2019-03-28T12:21:19.786Z,31.40
2019-03-28T12:22:19.753Z,31.80
2019-03-28T12:23:19.966Z,33.50
2019-03-28T12:24:19.755Z,34.50
2019-03-28T12:25:19.942Z,40.40
2019-03-28T12:26:19.947Z,34.80
2019-03-28T12:27:19.938Z,35.20
2019-03-28T12:28:19.943Z,33.50
2019-03-28T12:29:19.841Z,36.40
2019-03-28T12:30:19.732Z,31.50
2019-03-28T12:31:19.729Z,32.40
2019-03-28T12:32:19.921Z,33.00
2019-03-28T12:33:19.913Z,32.70
2019-03-28T12:34:19.721Z,31.50
2019-03-28T12:35:19.732Z,31.80
2019-03-28T12:36:19.920Z,32.90
2019-03-28T12:37:19.901Z,31.30
2019-03-28T12:38:19.693Z,31.20
2019-03-28T12:39:20.844Z,31.40
2019-03-28T12:40:19.744Z,32.20
2019-03-28T12:41:19.755Z,31.10
2019-03-28T12:42:19.681Z,29.60
2019-03-28T12:43:19.683Z,29.70
2019-03-28T12:44:19.688Z,30.50
2019-03-28T12:45:19.677Z,28.90
2019-03-28T12:46:19.672Z,29.60
2019-03-28T12:47:19.659Z,30.10
2019-03-28T12:48:19.671Z,30.10
2019-03-28T12:49:19.653Z,33.10
2019-03-28T12:50:19.866Z,31.40
2019-03-28T12:51:22.128Z,34.10
2019-03-28T12:52:19.638Z,32.10